createdAt,value
2023-04-18T00:00:59.105Z,98565.65
2023-04-18T00:04:15.174Z,98559.88
2023-04-18T00:07:26.302Z,98559.94
2023-04-18T00:10:45.462Z,98560.57
2023-04-18T00:13:59.625Z,98560.70
2023-04-18T00:17:15.549Z,98554.75
2023-04-18T00:20:26.285Z,98564.23
2023-04-18T00:23:38.188Z,98561.70
2023-04-18T00:26:52.035Z,98565.68
2023-04-18T00:30:11.809Z,98571.22
2023-04-18T00:33:10.487Z,98569.30
2023-04-18T00:36:21.282Z,98569.90
2023-04-18T00:39:43.075Z,98575.54
2023-04-18T00:42:48.725Z,98586.41
2023-04-18T00:45:59.507Z,98577.98
2023-04-18T00:49:11.536Z,98570.60
2023-04-18T00:52:25.016Z,98574.10
2023-04-18T00:55:37.583Z,98577.95
2023-04-18T00:58:48.305Z,98579.16
2023-04-18T01:02:01.123Z,98576.80
2023-04-18T01:05:13.676Z,98580.02
2023-04-18T01:08:25.937Z,98585.72
2023-04-18T01:11:38.664Z,98581.86
2023-04-18T01:14:49.494Z,98584.09
2023-04-18T01:18:00.339Z,98578.95
2023-04-18T01:21:12.731Z,98584.33
2023-04-18T01:24:39.776Z,98587.45
2023-04-18T01:27:53.848Z,98585.98
2023-04-18T01:31:04.593Z,98586.63
2023-04-18T01:34:15.577Z,98590.24
2023-04-18T01:37:43.892Z,98591.64
2023-04-18T01:40:55.768Z,98592.08
2023-04-18T01:44:06.624Z,98594.36
2023-04-18T01:47:17.340Z,98589.98
2023-04-18T01:50:37.118Z,98594.89
2023-04-18T01:53:44.148Z,98592.27
2023-04-18T01:56:57.861Z,98595.11
2023-04-18T02:00:10.559Z,98592.72
2023-04-18T02:03:21.724Z,98597.32
2023-04-18T02:06:40.944Z,98601.73
2023-04-18T02:09:52.007Z,98603.38
2023-04-18T02:13:04.810Z,98608.79
2023-04-18T02:16:25.016Z,98613.71
2023-04-18T02:19:36.759Z,98602.71
2023-04-18T02:22:47.904Z,98602.52
2023-04-18T02:25:58.666Z,98602.62
2023-04-18T02:29:09.380Z,98597.17
2023-04-18T02:32:25.774Z,98598.73
2023-04-18T02:35:36.589Z,98595.36
2023-04-18T02:38:47.380Z,98592.30
2023-04-18T02:41:58.090Z,98591.27
2023-04-18T02:45:11.285Z,98592.41
2023-04-18T02:48:23.610Z,98596.26
2023-04-18T02:51:36.257Z,98594.48
2023-04-18T02:54:56.447Z,98599.27
2023-04-18T02:58:07.336Z,98600.40
2023-04-18T03:01:24.572Z,98596.39
2023-04-18T03:04:43.739Z,98605.10
2023-04-18T03:07:58.665Z,98609.02
2023-04-18T03:11:13.120Z,98609.94
2023-04-18T03:14:32.160Z,98615.39
2023-04-18T03:17:51.257Z,98607.63
2023-04-18T03:21:03.849Z,98611.10
2023-04-18T03:24:23.579Z,98619.77
2023-04-18T03:27:35.343Z,98617.77
2023-04-18T03:30:58.058Z,98621.61
2023-04-18T03:34:12.148Z,98618.44
2023-04-18T03:37:26.825Z,98628.30
2023-04-18T03:40:48.858Z,98627.40
2023-04-18T03:44:07.968Z,98630.21
2023-04-18T03:47:27.983Z,98631.13
2023-04-18T03:50:47.632Z,98627.09
2023-04-18T03:54:00.245Z,98632.54
2023-04-18T03:57:12.686Z,98631.69
2023-04-18T04:00:33.714Z,98638.50
2023-04-18T04:03:47.521Z,98648.71
2023-04-18T04:07:00.334Z,98653.67
2023-04-18T04:10:22.872Z,98647.33
2023-04-18T04:13:34.576Z,98655.19
2023-04-18T04:16:50.131Z,98653.69
2023-04-18T04:19:55.526Z,98659.21
2023-04-18T04:23:14.337Z,98658.38
2023-04-18T04:26:40.656Z,98675.02
2023-04-18T04:29:52.901Z,98683.02
2023-04-18T04:33:04.921Z,98686.69
2023-04-18T04:36:24.033Z,98688.61
2023-04-18T04:39:44.642Z,98692.33
2023-04-18T04:42:53.878Z,98697.21
2023-04-18T04:46:04.724Z,98700.67
2023-04-18T04:49:16.560Z,98698.81
2023-04-18T04:52:35.747Z,98704.28
2023-04-18T04:55:47.628Z,98701.60
2023-04-18T04:58:59.524Z,98705.67
2023-04-18T05:02:09.986Z,98721.41
2023-04-18T05:05:23.888Z,98718.81
2023-04-18T05:08:42.956Z,98721.27
2023-04-18T05:12:03.158Z,98725.02
2023-04-18T05:15:15.818Z,98719.92
2023-04-18T05:18:27.570Z,98721.45
2023-04-18T05:21:52.314Z,98725.38
2023-04-18T05:25:04.550Z,98724.35
2023-04-18T05:28:18.295Z,98736.23
2023-04-18T05:31:31.675Z,98737.00
2023-04-18T05:34:42.853Z,98730.65
2023-04-18T05:37:53.718Z,98732.56
2023-04-18T05:41:04.706Z,98739.70
2023-04-18T05:44:23.895Z,98739.41
2023-04-18T05:47:36.323Z,98747.23
2023-04-18T05:50:47.295Z,98747.18
2023-04-18T05:53:59.103Z,98749.09
2023-04-18T05:57:11.412Z,98755.12
2023-04-18T06:00:38.841Z,98751.17
2023-04-18T06:03:43.737Z,98747.41
2023-04-18T06:06:55.150Z,98751.77
2023-04-18T06:10:14.441Z,98753.14
2023-04-18T06:13:28.646Z,98744.70
2023-04-18T06:16:40.181Z,98748.92
2023-04-18T06:19:53.330Z,98755.23
2023-04-18T06:23:06.248Z,98760.11
2023-04-18T06:26:19.286Z,98763.71
2023-04-18T06:29:35.600Z,98764.72
2023-04-18T06:32:41.884Z,98777.15
2023-04-18T06:35:54.427Z,98774.48
2023-04-18T06:39:00.151Z,98778.48
2023-04-18T06:42:12.947Z,98783.73
2023-04-18T06:45:32.033Z,98783.63
2023-04-18T06:48:45.077Z,98789.92
2023-04-18T06:52:04.157Z,98783.52
2023-04-18T06:55:15.933Z,98785.33
2023-04-18T06:58:26.760Z,98789.36
2023-04-18T07:01:39.753Z,98793.30
2023-04-18T07:04:50.909Z,98792.27
2023-04-18T07:08:09.702Z,98798.34
2023-04-18T07:11:31.674Z,98799.78
2023-04-18T07:14:42.762Z,98801.11
2023-04-18T07:17:55.175Z,98804.88
2023-04-18T07:21:14.319Z,98800.84
2023-04-18T07:24:26.413Z,98810.14
2023-04-18T07:27:37.165Z,98807.04
2023-04-18T07:30:43.543Z,98812.11
2023-04-18T07:34:03.642Z,98814.95
2023-04-18T07:37:22.665Z,98817.51
2023-04-18T07:40:34.857Z,98817.13
2023-04-18T07:43:54.620Z,98816.05
2023-04-18T07:47:08.524Z,98818.81
2023-04-18T07:50:22.382Z,98816.58
2023-04-18T07:53:37.318Z,98813.05
2023-04-18T07:56:49.442Z,98816.30
2023-04-18T07:59:54.010Z,98814.29
2023-04-18T08:03:09.867Z,98824.46
2023-04-18T08:06:13.420Z,98821.18
2023-04-18T08:09:28.665Z,98816.41
2023-04-18T08:12:40.245Z,98814.79
2023-04-18T08:15:59.565Z,98815.57
2023-04-18T08:19:11.344Z,98809.13
2023-04-18T08:22:23.295Z,98818.23
2023-04-18T08:25:43.701Z,98820.56
2023-04-18T08:28:54.480Z,98831.22
2023-04-18T08:32:05.482Z,98830.48
2023-04-18T08:35:16.268Z,98839.60
2023-04-18T08:38:35.746Z,98833.48
2023-04-18T08:41:51.072Z,98836.95
2023-04-18T08:45:02.894Z,98833.45
2023-04-18T08:48:14.782Z,98822.12
2023-04-18T08:51:33.907Z,98833.58
2023-04-18T08:54:44.680Z,98830.19
2023-04-18T08:57:56.027Z,98829.71
2023-04-18T09:01:08.915Z,98830.90
2023-04-18T09:04:29.216Z,98824.05
2023-04-18T09:07:42.665Z,98824.45
2023-04-18T09:10:46.885Z,98832.73
2023-04-18T09:14:03.242Z,98822.20
2023-04-18T09:17:14.606Z,98818.61
2023-04-18T09:20:31.467Z,98815.75
2023-04-18T09:23:44.328Z,98819.05
2023-04-18T09:26:59.024Z,98816.79
2023-04-18T09:30:08.506Z,98810.63
2023-04-18T09:33:15.984Z,98812.90
2023-04-18T09:36:29.791Z,98814.67
2023-04-18T09:39:40.507Z,98814.54
2023-04-18T09:42:54.524Z,98820.32
2023-04-18T09:46:09.863Z,98812.66
2023-04-18T09:49:20.623Z,98812.30
2023-04-18T09:52:31.317Z,98814.33
2023-04-18T09:55:58.824Z,98811.61
2023-04-18T09:59:10.576Z,98803.20
2023-04-18T10:02:23.239Z,98814.84
2023-04-18T10:05:37.889Z,98809.52
2023-04-18T10:08:49.718Z,98805.75
2023-04-18T10:11:52.148Z,98797.96
2023-04-18T10:15:04.214Z,98803.41
2023-04-18T10:18:13.075Z,98794.36
2023-04-18T10:21:27.509Z,98802.16
2023-04-18T10:24:42.520Z,98803.30
2023-04-18T10:27:52.683Z,98788.73
2023-04-18T10:31:07.288Z,98786.47
2023-04-18T10:34:21.598Z,98797.06
2023-04-18T10:37:35.502Z,98793.89
2023-04-18T10:40:48.295Z,98788.16
2023-04-18T10:44:01.026Z,98789.18
2023-04-18T10:46:55.598Z,98791.02
2023-04-18T10:49:53.065Z,98782.84
2023-04-18T10:53:12.772Z,98789.88
2023-04-18T10:56:24.966Z,98788.77
2023-04-18T10:59:36.716Z,98786.56
2023-04-18T11:02:53.331Z,98779.96
2023-04-18T11:06:04.818Z,98772.47
2023-04-18T11:09:19.729Z,98775.27
2023-04-18T11:12:23.447Z,98775.08
2023-04-18T11:15:31.033Z,98775.36
2023-04-18T11:18:28.407Z,98779.03
2023-04-18T11:21:54.578Z,98780.02
2023-04-18T11:25:11.065Z,98782.13
2023-04-18T11:28:25.819Z,98772.67
2023-04-18T11:31:28.211Z,98777.53
2023-04-18T11:34:45.326Z,98776.15
2023-04-18T11:38:06.005Z,98769.71
2023-04-18T11:41:17.760Z,98767.61
2023-04-18T11:44:30.536Z,98769.95
2023-04-18T11:47:40.481Z,98763.61
2023-04-18T11:50:51.347Z,98780.14
2023-04-18T11:54:04.364Z,98774.67
2023-04-18T11:57:16.456Z,98767.00
2023-04-18T12:00:36.537Z,98759.39
2023-04-18T12:03:51.867Z,98762.12
2023-04-18T12:07:04.818Z,98757.88
2023-04-18T12:10:16.030Z,98777.98
2023-04-18T12:13:27.746Z,98757.97
2023-04-18T12:16:38.699Z,98750.30
2023-04-18T12:19:49.896Z,98761.40
2023-04-18T12:23:08.396Z,98756.98
2023-04-18T12:26:17.178Z,98753.46
2023-04-18T12:29:46.436Z,98752.05
2023-04-18T12:32:58.090Z,98757.35
2023-04-18T12:36:11.579Z,98757.63
2023-04-18T12:39:24.756Z,98752.86
2023-04-18T12:42:35.732Z,98750.66
2023-04-18T12:45:47.425Z,98746.99
2023-04-18T12:49:13.577Z,98759.69
2023-04-18T12:52:24.265Z,98752.42
2023-04-18T12:55:37.591Z,98747.55
2023-04-18T12:58:41.155Z,98746.86
2023-04-18T13:02:01.331Z,98746.02
2023-04-18T13:05:21.179Z,98741.73
2023-04-18T13:08:40.338Z,98734.90
2023-04-18T13:11:52.503Z,98739.16
2023-04-18T13:15:14.785Z,98747.48
2023-04-18T13:18:25.503Z,98735.72
2023-04-18T13:21:36.306Z,98736.90
2023-04-18T13:24:42.581Z,98741.91
2023-04-18T13:27:53.360Z,98741.08
2023-04-18T13:31:04.076Z,98737.11
2023-04-18T13:34:31.526Z,98741.70
2023-04-18T13:37:42.254Z,98746.01
2023-04-18T13:41:11.522Z,98739.63
2023-04-18T13:44:26.723Z,98740.16
2023-04-18T13:47:38.629Z,98741.86
2023-04-18T13:50:51.235Z,98734.28
2023-04-18T13:54:04.742Z,98736.86
2023-04-18T13:57:15.460Z,98737.56
2023-04-18T14:00:34.525Z,98732.52
2023-04-18T14:03:45.317Z,98731.23
2023-04-18T14:07:04.696Z,98730.09
2023-04-18T14:10:32.182Z,98729.27
2023-04-18T14:13:44.959Z,98727.92
2023-04-18T14:16:56.211Z,98732.08
2023-04-18T14:20:16.067Z,98727.86
2023-04-18T14:23:43.682Z,98735.02
2023-04-18T14:26:54.664Z,98734.73
2023-04-18T14:30:16.222Z,98731.77
2023-04-18T14:33:35.551Z,98729.58
2023-04-18T14:36:46.585Z,98725.84
2023-04-18T14:39:57.723Z,98727.33
2023-04-18T14:43:09.032Z,98725.60
2023-04-18T14:46:22.438Z,98723.33
2023-04-18T14:49:34.328Z,98720.69
2023-04-18T14:52:46.459Z,98722.81
2023-04-18T14:56:01.223Z,98724.58
2023-04-18T14:59:16.696Z,98724.86
2023-04-18T15:02:30.530Z,98723.78
2023-04-18T15:05:43.607Z,98716.52
2023-04-18T15:09:03.523Z,98718.65
2023-04-18T15:12:14.480Z,98713.89
2023-04-18T15:15:26.627Z,98709.75
2023-04-18T15:18:40.575Z,98717.64
2023-04-18T15:22:09.186Z,98712.39
2023-04-18T15:25:29.324Z,98712.42
2023-04-18T15:28:49.475Z,98711.91
2023-04-18T15:32:04.270Z,98713.73
2023-04-18T15:35:32.249Z,98711.84
2023-04-18T15:38:44.996Z,98711.13
2023-04-18T15:42:05.125Z,98709.90
2023-04-18T15:45:18.265Z,98713.33
2023-04-18T15:48:45.836Z,98719.92
2023-04-18T15:51:58.005Z,98723.48
2023-04-18T15:55:10.120Z,98716.66
2023-04-18T15:58:30.611Z,98717.86
2023-04-18T16:01:45.665Z,98720.63
2023-04-18T16:04:49.491Z,98722.26
2023-04-18T16:08:00.868Z,98720.52
2023-04-18T16:11:11.660Z,98720.68
2023-04-18T16:14:23.977Z,98717.94
2023-04-18T16:17:39.126Z,98724.44
2023-04-18T16:20:59.819Z,98720.05
2023-04-18T16:24:15.422Z,98720.33
2023-04-18T16:27:26.273Z,98717.55
2023-04-18T16:30:39.739Z,98722.57
2023-04-18T16:33:50.485Z,98718.27
2023-04-18T16:37:02.367Z,98721.69
2023-04-18T16:40:13.357Z,98718.14
2023-04-18T16:43:33.919Z,98722.56
2023-04-18T16:46:46.901Z,98723.09
2023-04-18T16:49:58.814Z,98720.21
2023-04-18T16:53:09.605Z,98719.32
2023-04-18T16:56:22.171Z,98716.35
2023-04-18T16:59:34.735Z,98714.48
2023-04-18T17:02:46.548Z,98719.37
2023-04-18T17:06:04.182Z,98717.73
2023-04-18T17:09:17.968Z,98715.01
2023-04-18T17:12:30.910Z,98721.52
2023-04-18T17:15:51.348Z,98720.27
2023-04-18T17:19:10.436Z,98716.15
2023-04-18T17:22:24.801Z,98718.30
2023-04-18T17:25:35.523Z,98720.45
2023-04-18T17:28:46.399Z,98721.72
2023-04-18T17:32:08.287Z,98719.41
2023-04-18T17:35:23.350Z,98725.25
2023-04-18T17:38:44.567Z,98724.23
2023-04-18T17:41:55.288Z,98722.23
2023-04-18T17:45:02.687Z,98723.80
2023-04-18T17:48:15.076Z,98725.84
2023-04-18T17:51:38.918Z,98722.02
2023-04-18T17:54:59.158Z,98725.33
2023-04-18T17:58:18.296Z,98723.81
2023-04-18T18:01:31.146Z,98724.27
2023-04-18T18:04:44.984Z,98722.10
2023-04-18T18:07:58.198Z,98723.78
2023-04-18T18:11:10.210Z,98723.06
2023-04-18T18:14:37.798Z,98719.23
2023-04-18T18:17:42.512Z,98721.67
2023-04-18T18:21:03.074Z,98724.38
2023-04-18T18:24:15.444Z,98722.91
2023-04-18T18:27:26.489Z,98720.52
2023-04-18T18:30:54.124Z,98725.39
2023-04-18T18:34:09.405Z,98732.30
2023-04-18T18:37:13.612Z,98731.52
2023-04-18T18:40:24.336Z,98737.06
2023-04-18T18:43:35.381Z,98732.35
2023-04-18T18:46:46.240Z,98735.51
2023-04-18T18:50:01.116Z,98731.15
2023-04-18T18:53:28.933Z,98730.51
2023-04-18T18:56:48.071Z,98733.84
2023-04-18T19:00:01.316Z,98733.22
2023-04-18T19:03:14.402Z,98723.90
2023-04-18T19:06:17.464Z,98729.27
2023-04-18T19:09:36.703Z,98726.00
2023-04-18T19:12:48.919Z,98729.73
2023-04-18T19:16:02.329Z,98721.98
2023-04-18T19:19:22.958Z,98723.35
2023-04-18T19:22:35.179Z,98721.94
2023-04-18T19:25:47.428Z,98721.02
2023-04-18T19:28:58.301Z,98718.39
2023-04-18T19:32:11.294Z,98719.90
2023-04-18T19:35:23.729Z,98721.61
2023-04-18T19:38:35.885Z,98720.88
2023-04-18T19:41:46.622Z,98717.84
2023-04-18T19:45:05.748Z,98721.55
2023-04-18T19:48:24.916Z,98719.30
2023-04-18T19:51:44.611Z,98714.14
2023-04-18T19:54:55.771Z,98711.64
2023-04-18T19:58:15.813Z,98709.20
2023-04-18T20:01:27.798Z,98704.02
2023-04-18T20:04:40.876Z,98706.06
2023-04-18T20:07:52.899Z,98704.75
2023-04-18T20:11:04.634Z,98704.33
2023-04-18T20:14:16.640Z,98699.06
2023-04-18T20:17:37.394Z,98695.20
2023-04-18T20:20:50.314Z,98696.52
2023-04-18T20:24:10.730Z,98693.57
2023-04-18T20:27:38.210Z,98688.80
2023-04-18T20:30:49.264Z,98689.05
2023-04-18T20:34:01.656Z,98685.45
2023-04-18T20:37:12.513Z,98683.94
2023-04-18T20:40:25.476Z,98683.30
2023-04-18T20:43:36.318Z,98679.42
2023-04-18T20:46:47.146Z,98678.56
2023-04-18T20:50:02.447Z,98673.70
2023-04-18T20:53:07.071Z,98668.83
2023-04-18T20:56:19.560Z,98671.20
2023-04-18T20:59:38.673Z,98669.95
2023-04-18T21:02:51.429Z,98661.83
2023-04-18T21:06:02.449Z,98660.21
2023-04-18T21:09:13.630Z,98661.30
2023-04-18T21:12:26.683Z,98654.91
2023-04-18T21:15:37.743Z,98654.05
2023-04-18T21:18:56.930Z,98647.67
2023-04-18T21:22:16.098Z,98646.05
2023-04-18T21:25:30.075Z,98644.25
2023-04-18T21:28:42.849Z,98642.35
2023-04-18T21:31:54.059Z,98640.55
2023-04-18T21:35:06.930Z,98641.15
2023-04-18T21:38:26.198Z,98640.05
2023-04-18T21:41:40.943Z,98640.38
2023-04-18T21:44:52.395Z,98640.66
2023-04-18T21:48:11.806Z,98635.21
2023-04-18T21:51:32.200Z,98631.30
2023-04-18T21:54:51.517Z,98626.45
2023-04-18T21:58:02.527Z,98631.02
2023-04-18T22:01:17.587Z,98628.51
2023-04-18T22:04:36.825Z,98623.70
2023-04-18T22:07:58.471Z,98618.81
2023-04-18T22:11:13.385Z,98619.11
2023-04-18T22:14:24.174Z,98614.15
2023-04-18T22:17:30.684Z,98611.68
2023-04-18T22:20:42.997Z,98609.11
2023-04-18T22:23:55.475Z,98609.80
2023-04-18T22:27:00.393Z,98607.64
2023-04-18T22:30:13.104Z,98598.77
2023-04-18T22:33:24.871Z,98601.58
2023-04-18T22:36:35.638Z,98596.88
2023-04-18T22:39:46.370Z,98594.68
2023-04-18T22:43:00.526Z,98590.47
2023-04-18T22:46:12.751Z,98589.77
2023-04-18T22:49:26.522Z,98586.71
2023-04-18T22:52:37.278Z,98576.76
2023-04-18T22:55:49.095Z,98577.56
2023-04-18T22:59:03.254Z,98573.54
2023-04-18T23:02:16.753Z,98568.91
2023-04-18T23:05:28.664Z,98565.77
2023-04-18T23:08:47.862Z,98561.08
2023-04-18T23:12:06.045Z,98556.51
2023-04-18T23:15:17.421Z,98551.58
2023-04-18T23:18:28.538Z,98547.19
2023-04-18T23:21:39.369Z,98545.86
2023-04-18T23:24:50.411Z,98540.08
2023-04-18T23:28:01.365Z,98540.48
2023-04-18T23:31:20.647Z,98532.71
2023-04-18T23:34:31.494Z,98525.29
2023-04-18T23:37:45.808Z,98519.09
2023-04-18T23:40:58.740Z,98515.36
2023-04-18T23:44:11.043Z,98509.02
2023-04-18T23:47:39.096Z,98508.63
2023-04-18T23:50:55.470Z,98502.40
2023-04-18T23:54:06.364Z,98499.58
2023-04-18T23:57:25.581Z,98497.34
